Time;durP1;ratioP1;P1;durP2;ratioP2;P2;SDS_P1;SDS_P2;PMS_P1;PMS_P2;Temp;Humidity;BMP_temperature;BMP_pressure;BME280_temperature;BME280_humidity;BME280_pressure;Samples;Min_cycle;Max_cycle;Signal;HPM_P1;HPM_P2
2022/01/23 00:02:10;;;;;;;10.98;3.15;;;;;;;;;;4936646;28;20308;-85
2022/01/23 00:04:37;;;;;;;11.70;3.20;;;;;;;;;;4941398;28;20576;-86
2022/01/23 00:07:05;;;;;;;14.50;2.95;;;;;;;;;;4939120;28;20035;-86
2022/01/23 00:09:32;;;;;;;10.45;3.03;;;;;;;;;;4946865;28;20937;-87
2022/01/23 00:12:00;;;;;;;8.05;2.97;;;;;;;;;;4938866;28;20498;-85
2022/01/23 00:17:17;;;;;;;14.52;2.88;;;;;;;;;;4955103;28;20124;-85
2022/01/23 00:19:44;;;;;;;10.90;4.07;;;;;;;;;;4960355;28;20044;-84
2022/01/23 00:22:11;;;;;;;15.30;3.72;;;;;;;;;;4944792;28;20437;-85
2022/01/23 00:32:52;;;;;;;7.80;3.47;;;;;;;;;;4960005;28;20114;-84
2022/01/23 00:35:18;;;;;;;14.65;3.53;;;;;;;;;;4941498;28;20034;-84
2022/01/23 00:37:44;;;;;;;10.93;3.05;;;;;;;;;;4959704;28;20046;-84
2022/01/23 00:40:11;;;;;;;15.80;3.45;;;;;;;;;;4961948;28;20487;-86
2022/01/23 00:42:37;;;;;;;5.95;3.13;;;;;;;;;;4953009;28;20530;-86
2022/01/23 00:47:54;;;;;;;12.95;3.03;;;;;;;;;;4969367;28;20478;-85
2022/01/23 00:50:20;;;;;;;7.75;2.95;;;;;;;;;;4962137;28;20030;-86
2022/01/23 00:52:46;;;;;;;14.07;2.83;;;;;;;;;;4962053;28;20048;-84
2022/01/23 00:55:12;;;;;;;13.80;3.30;;;;;;;;;;4978863;28;20106;-86
2022/01/23 00:57:38;;;;;;;3.85;2.40;;;;;;;;;;4961751;28;20089;-86
2022/01/23 01:00:05;;;;;;;7.55;2.60;;;;;;;;;;4963433;28;20034;-85
2022/01/23 01:02:31;;;;;;;7.05;2.53;;;;;;;;;;4978650;28;20030;-85
2022/01/23 01:04:57;;;;;;;11.43;2.75;;;;;;;;;;4960572;28;20038;-86
2022/01/23 01:07:24;;;;;;;12.23;2.80;;;;;;;;;;4963747;28;20045;-85
2022/01/23 01:09:52;;;;;;;11.23;3.38;;;;;;;;;;4960937;28;20026;-86
2022/01/23 01:12:23;;;;;;;8.35;2.78;;;;;;;;;;4966817;28;20026;-85
2022/01/23 01:31:22;;;;;;;10.77;3.20;;;;;;;;;;4981979;28;20526;-85
2022/01/23 01:33:57;;;;;;;11.25;3.40;;;;;;;;;;4981673;28;20019;-85
2022/01/23 01:38:58;;;;;;;15.40;4.07;;;;;;;;;;4983765;28;20034;-85
2022/01/23 01:41:24;;;;;;;8.05;3.25;;;;;;;;;;4962384;28;20045;-85
2022/01/23 01:43:51;;;;;;;6.93;3.40;;;;;;;;;;4966796;28;20042;-86
2022/01/23 01:46:17;;;;;;;14.20;3.72;;;;;;;;;;4960392;28;20068;-86
2022/01/23 01:48:43;;;;;;;10.60;3.55;;;;;;;;;;4955610;28;20047;-86
2022/01/23 01:51:14;;;;;;;15.52;4.15;;;;;;;;;;4946204;28;20038;-85
2022/01/23 01:53:47;;;;;;;9.13;3.20;;;;;;;;;;4943099;28;20813;-85
2022/01/23 01:56:13;;;;;;;10.20;3.92;;;;;;;;;;4948507;28;20050;-86
2022/01/23 02:02:38;;;;;;;11.75;4.07;;;;;;;;;;4962214;28;20145;-85
2022/01/23 02:09:24;;;;;;;11.05;3.20;;;;;;;;;;4963273;28;20053;-84
2022/01/23 02:12:12;;;;;;;13.07;3.35;;;;;;;;;;4943341;28;20089;-85
2022/01/23 02:15:11;;;;;;;8.27;3.53;;;;;;;;;;4954858;28;20041;-85
2022/01/23 02:55:43;;;;;;;13.43;3.97;;;;;;;;;;4974353;28;20038;-87
2022/01/23 02:58:12;;;;;;;11.02;3.78;;;;;;;;;;4952524;28;20149;-85
2022/01/23 03:01:23;;;;;;;20.80;3.85;;;;;;;;;;4966005;28;20041;-85
2022/01/23 03:03:28;;;;;;;13.45;3.78;;;;;;;;;;4977233;28;20124;-85
2022/01/23 03:28:03;;;;;;;9.43;4.10;;;;;;;;;;4977221;28;20042;-86
2022/01/23 03:30:20;;;;;;;15.10;3.45;;;;;;;;;;4983390;28;20031;-85
2022/01/23 03:32:48;;;;;;;13.35;4.32;;;;;;;;;;4963811;28;20479;-86
2022/01/23 03:35:16;;;;;;;16.38;4.00;;;;;;;;;;4962756;28;20640;-85
2022/01/23 03:37:42;;;;;;;15.05;4.57;;;;;;;;;;4964881;28;20030;-85
2022/01/23 03:40:08;;;;;;;8.98;3.65;;;;;;;;;;4975628;28;20053;-86
2022/01/23 03:42:35;;;;;;;9.80;3.83;;;;;;;;;;4968334;28;20096;-86
2022/01/23 03:50:48;;;;;;;10.50;3.63;;;;;;;;;;4918866;29;20035;-85
2022/01/23 03:53:14;;;;;;;8.57;3.83;;;;;;;;;;4950266;28;20039;-85
2022/01/23 03:55:41;;;;;;;15.10;3.60;;;;;;;;;;4968563;28;20108;-85
2022/01/23 03:58:07;;;;;;;12.98;3.55;;;;;;;;;;4955149;28;20038;-86
2022/01/23 04:00:34;;;;;;;8.75;3.33;;;;;;;;;;4964643;28;20034;-86
2022/01/23 04:03:00;;;;;;;10.88;3.60;;;;;;;;;;4960062;28;20050;-86
2022/01/23 04:05:26;;;;;;;11.98;3.45;;;;;;;;;;4964622;28;20061;-86
2022/01/23 04:07:52;;;;;;;9.82;3.45;;;;;;;;;;4956435;28;20026;-85
2022/01/23 04:10:21;;;;;;;15.55;3.60;;;;;;;;;;4965643;28;20038;-85
2022/01/23 04:13:08;;;;;;;10.45;3.60;;;;;;;;;;4958994;28;20434;-84
2022/01/23 04:16:04;;;;;;;6.85;3.30;;;;;;;;;;4962143;28;20023;-86
2022/01/23 04:31:37;;;;;;;11.50;3.92;;;;;;;;;;4975909;28;20112;-85
2022/01/23 04:45:46;;;;;;;11.82;3.60;;;;;;;;;;4982883;28;20038;-87
2022/01/23 04:48:55;;;;;;;15.55;4.10;;;;;;;;;;4961096;28;20034;-86
2022/01/23 04:59:46;;;;;;;13.00;4.15;;;;;;;;;;4977484;28;20833;-87
2022/01/23 05:04:57;;;;;;;10.70;3.70;;;;;;;;;;4978206;28;20132;-86
2022/01/23 05:07:27;;;;;;;16.13;3.85;;;;;;;;;;4966252;28;20130;-86
2022/01/23 05:09:53;;;;;;;10.73;3.75;;;;;;;;;;4979212;28;20097;-86
2022/01/23 05:12:24;;;;;;;9.43;4.10;;;;;;;;;;4969443;28;20050;-86
2022/01/23 05:14:50;;;;;;;8.88;3.35;;;;;;;;;;4976163;28;20022;-85
2022/01/23 05:17:18;;;;;;;10.20;3.40;;;;;;;;;;4966035;28;20112;-85
2022/01/23 05:19:44;;;;;;;12.85;4.22;;;;;;;;;;4966171;28;20402;-85
2022/01/23 05:24:53;;;;;;;12.57;4.53;;;;;;;;;;4984371;28;20541;-86
2022/01/23 05:27:23;;;;;;;15.02;3.97;;;;;;;;;;4963512;28;20042;-86
2022/01/23 05:29:50;;;;;;;11.45;4.38;;;;;;;;;;4974888;28;20030;-85
2022/01/23 05:32:16;;;;;;;10.35;4.70;;;;;;;;;;4960447;28;20054;-85
2022/01/23 05:34:44;;;;;;;16.23;4.50;;;;;;;;;;4972625;28;20136;-86
2022/01/23 05:37:10;;;;;;;11.38;4.38;;;;;;;;;;4962760;28;20506;-84
2022/01/23 05:39:36;;;;;;;10.80;3.85;;;;;;;;;;4965116;28;20072;-85
2022/01/23 05:42:07;;;;;;;10.85;4.15;;;;;;;;;;4966277;28;20028;-85
2022/01/23 05:44:34;;;;;;;8.15;4.07;;;;;;;;;;4958881;28;20399;-86
2022/01/23 05:47:07;;;;;;;12.52;5.25;;;;;;;;;;4962471;28;20034;-86
2022/01/23 05:49:35;;;;;;;15.88;4.60;;;;;;;;;;4978097;28;20566;-86
2022/01/23 05:52:01;;;;;;;19.55;4.88;;;;;;;;;;4968894;28;20534;-85
2022/01/23 05:54:27;;;;;;;8.68;4.28;;;;;;;;;;4963178;28;20062;-86
2022/01/23 05:56:53;;;;;;;11.23;4.07;;;;;;;;;;4966917;28;20031;-84
2022/01/23 05:59:21;;;;;;;11.63;4.35;;;;;;;;;;4964832;28;20065;-85
2022/01/23 06:01:47;;;;;;;13.18;4.43;;;;;;;;;;4964185;28;20062;-86
2022/01/23 06:04:13;;;;;;;11.88;4.65;;;;;;;;;;4968641;28;20027;-85
2022/01/23 06:06:39;;;;;;;9.00;4.10;;;;;;;;;;4964933;28;20030;-85
2022/01/23 06:09:05;;;;;;;12.18;3.78;;;;;;;;;;4970704;28;20037;-85
2022/01/23 06:11:31;;;;;;;14.27;4.13;;;;;;;;;;4973185;28;20702;-86
2022/01/23 06:13:57;;;;;;;10.05;4.13;;;;;;;;;;4981939;28;20038;-85
2022/01/23 06:16:23;;;;;;;10.82;4.60;;;;;;;;;;4961815;28;20022;-85
2022/01/23 06:18:49;;;;;;;11.73;4.35;;;;;;;;;;4966286;28;20390;-86
2022/01/23 06:21:19;;;;;;;8.48;4.38;;;;;;;;;;4964936;28;20038;-86
2022/01/23 06:23:47;;;;;;;15.10;4.07;;;;;;;;;;4970713;28;20471;-85
2022/01/23 06:26:13;;;;;;;10.63;4.25;;;;;;;;;;4964247;28;20114;-86
2022/01/23 06:28:46;;;;;;;9.30;4.45;;;;;;;;;;4965400;28;20034;-85
2022/01/23 06:31:12;;;;;;;9.27;3.80;;;;;;;;;;4979784;28;20030;-85
2022/01/23 06:33:38;;;;;;;6.75;3.28;;;;;;;;;;4962977;28;20041;-85
2022/01/23 06:36:05;;;;;;;10.02;3.97;;;;;;;;;;4968863;28;20038;-85
2022/01/23 06:38:31;;;;;;;18.35;3.85;;;;;;;;;;4959895;28;20022;-85
2022/01/23 06:40:57;;;;;;;9.77;3.95;;;;;;;;;;4979335;28;20769;-85
2022/01/23 06:43:23;;;;;;;9.43;4.20;;;;;;;;;;4977631;28;20036;-86
2022/01/23 06:45:49;;;;;;;10.48;4.38;;;;;;;;;;4980731;28;20039;-86
2022/01/23 06:48:15;;;;;;;15.00;4.28;;;;;;;;;;4963933;28;20049;-86
2022/01/23 06:50:41;;;;;;;14.82;3.78;;;;;;;;;;4961839;28;20034;-86
2022/01/23 06:53:07;;;;;;;10.18;5.60;;;;;;;;;;4967021;28;20170;-85
2022/01/23 06:55:33;;;;;;;8.60;3.80;;;;;;;;;;4962941;28;20383;-85
2022/01/23 06:57:59;;;;;;;13.32;4.03;;;;;;;;;;4978387;28;20030;-85
2022/01/23 07:00:25;;;;;;;13.15;3.75;;;;;;;;;;4975763;28;20451;-86
2022/01/23 07:02:51;;;;;;;8.13;4.10;;;;;;;;;;4980529;28;20170;-85
2022/01/23 07:05:16;;;;;;;10.35;4.18;;;;;;;;;;4962992;28;20117;-85
2022/01/23 07:07:43;;;;;;;19.58;4.13;;;;;;;;;;4965034;28;20174;-85
2022/01/23 07:10:09;;;;;;;15.27;4.93;;;;;;;;;;4978029;28;20027;-85
2022/01/23 07:12:35;;;;;;;17.45;4.50;;;;;;;;;;4962235;28;20049;-86
2022/01/23 07:15:01;;;;;;;12.48;4.30;;;;;;;;;;4971749;28;20048;-85
2022/01/23 07:17:27;;;;;;;12.18;3.40;;;;;;;;;;4962759;28;20431;-85
2022/01/23 07:19:53;;;;;;;10.75;5.10;;;;;;;;;;4965433;28;20088;-85
2022/01/23 07:22:19;;;;;;;14.10;4.95;;;;;;;;;;4955009;28;20030;-86
2022/01/23 07:24:45;;;;;;;15.85;6.45;;;;;;;;;;4964268;28;20031;-85
2022/01/23 07:27:18;;;;;;;18.05;6.00;;;;;;;;;;4959337;28;20046;-85
2022/01/23 07:29:46;;;;;;;17.25;6.15;;;;;;;;;;4964847;28;20026;-87
2022/01/23 07:32:12;;;;;;;16.50;6.25;;;;;;;;;;4952517;28;20235;-85
2022/01/23 07:34:39;;;;;;;9.55;4.68;;;;;;;;;;4957815;28;20026;-85
2022/01/23 07:37:05;;;;;;;12.65;4.80;;;;;;;;;;4958626;28;20545;-84
2022/01/23 07:39:31;;;;;;;14.73;4.65;;;;;;;;;;4962823;28;20487;-85
2022/01/23 07:41:57;;;;;;;13.55;5.20;;;;;;;;;;4981547;28;20038;-85
2022/01/23 07:44:23;;;;;;;13.57;5.25;;;;;;;;;;4965710;28;20026;-84
2022/01/23 07:46:51;;;;;;;12.52;4.78;;;;;;;;;;4963078;28;20019;-86
2022/01/23 07:49:17;;;;;;;9.02;4.78;;;;;;;;;;4961362;28;20050;-86
2022/01/23 07:51:43;;;;;;;12.48;5.05;;;;;;;;;;4945496;28;20114;-85
2022/01/23 07:54:09;;;;;;;10.27;4.55;;;;;;;;;;4944548;28;20042;-85
2022/01/23 07:56:37;;;;;;;9.23;4.63;;;;;;;;;;4958215;28;20395;-85
2022/01/23 07:59:03;;;;;;;14.25;4.88;;;;;;;;;;4955087;28;20024;-85
2022/01/23 08:01:31;;;;;;;17.58;5.15;;;;;;;;;;4943437;28;20073;-86
2022/01/23 08:03:57;;;;;;;13.23;4.68;;;;;;;;;;4958321;28;20040;-85
2022/01/23 08:06:28;;;;;;;9.88;4.72;;;;;;;;;;4940426;28;20506;-86
2022/01/23 08:08:56;;;;;;;19.23;6.10;;;;;;;;;;4939769;28;20138;-85
2022/01/23 08:11:22;;;;;;;13.50;4.97;;;;;;;;;;4951168;28;20066;-88
2022/01/23 08:13:48;;;;;;;14.48;5.03;;;;;;;;;;4957519;28;20028;-84
2022/01/23 08:16:14;;;;;;;14.38;5.05;;;;;;;;;;4956130;28;20534;-87
2022/01/23 08:18:41;;;;;;;10.82;5.20;;;;;;;;;;4959135;28;20039;-84
2022/01/23 08:21:07;;;;;;;24.48;8.30;;;;;;;;;;4947112;28;20035;-85
2022/01/23 08:23:34;;;;;;;14.63;5.95;;;;;;;;;;4944803;28;23042;-88
2022/01/23 08:26:00;;;;;;;9.05;4.57;;;;;;;;;;4938383;28;20840;-84
2022/01/23 08:28:26;;;;;;;12.77;4.53;;;;;;;;;;4941971;28;20078;-84
2022/01/23 08:30:52;;;;;;;12.15;4.82;;;;;;;;;;4945881;28;20031;-84
2022/01/23 08:33:18;;;;;;;10.00;4.70;;;;;;;;;;4960960;28;20031;-84
2022/01/23 08:35:45;;;;;;;12.85;4.82;;;;;;;;;;4963661;28;20031;-84
2022/01/23 08:38:13;;;;;;;9.80;4.13;;;;;;;;;;4945400;28;20042;-83
2022/01/23 08:43:09;;;;;;;10.07;4.93;;;;;;;;;;4962014;28;20125;-84
2022/01/23 08:45:35;;;;;;;11.88;5.43;;;;;;;;;;4951213;28;20133;-84
2022/01/23 08:48:01;;;;;;;7.05;4.20;;;;;;;;;;4959463;28;20491;-84
2022/01/23 08:50:34;;;;;;;7.88;4.15;;;;;;;;;;4963898;28;20115;-84
2022/01/23 08:53:00;;;;;;;11.20;4.57;;;;;;;;;;4949691;28;20546;-84
2022/01/23 08:55:26;;;;;;;9.05;3.78;;;;;;;;;;4950673;28;20158;-85
2022/01/23 08:57:52;;;;;;;34.28;14.38;;;;;;;;;;4950863;28;20065;-83
2022/01/23 09:00:19;;;;;;;33.63;12.18;;;;;;;;;;4947650;28;20035;-83
2022/01/23 09:02:52;;;;;;;20.63;7.45;;;;;;;;;;4949918;28;20034;-84
2022/01/23 09:05:18;;;;;;;13.45;5.22;;;;;;;;;;4945127;28;20043;-85
2022/01/23 09:07:44;;;;;;;12.63;5.47;;;;;;;;;;4962132;28;20118;-85
2022/01/23 09:10:10;;;;;;;8.88;4.43;;;;;;;;;;4959975;28;20027;-85
2022/01/23 09:15:06;;;;;;;7.65;3.45;;;;;;;;;;4966308;28;20026;-83
2022/01/23 09:17:32;;;;;;;8.60;4.30;;;;;;;;;;4949546;28;20039;-83
2022/01/23 09:19:58;;;;;;;8.38;4.18;;;;;;;;;;4951308;28;20169;-84
2022/01/23 09:22:28;;;;;;;6.50;3.40;;;;;;;;;;4954620;28;20050;-84
2022/01/23 09:24:55;;;;;;;9.05;3.50;;;;;;;;;;4948900;28;20666;-85
2022/01/23 09:27:21;;;;;;;6.93;3.63;;;;;;;;;;4963957;28;20031;-83
2022/01/23 09:29:50;;;;;;;7.30;3.58;;;;;;;;;;4960526;28;20480;-84
2022/01/23 09:32:17;;;;;;;8.00;3.88;;;;;;;;;;4959714;28;20028;-84
2022/01/23 09:34:43;;;;;;;6.32;3.78;;;;;;;;;;4952610;28;20059;-83
2022/01/23 09:37:11;;;;;;;7.60;3.60;;;;;;;;;;4962822;28;20480;-83
2022/01/23 09:39:38;;;;;;;8.10;3.83;;;;;;;;;;4946665;28;20144;-83
2022/01/23 09:42:10;;;;;;;7.78;3.88;;;;;;;;;;4951038;28;20026;-83
2022/01/23 09:44:59;;;;;;;7.70;3.88;;;;;;;;;;4949626;28;20130;-84
2022/01/23 09:47:26;;;;;;;9.38;3.85;;;;;;;;;;4944256;28;20495;-84
2022/01/23 09:49:53;;;;;;;7.63;3.70;;;;;;;;;;4963148;28;20035;-84
2022/01/23 09:52:20;;;;;;;7.07;3.90;;;;;;;;;;4952038;28;20466;-83
2022/01/23 09:54:56;;;;;;;7.43;3.08;;;;;;;;;;4947638;28;20446;-84
2022/01/23 09:57:24;;;;;;;9.82;3.85;;;;;;;;;;4951538;28;20641;-85
2022/01/23 09:59:54;;;;;;;20.75;9.82;;;;;;;;;;4958800;28;20407;-84
2022/01/23 10:02:20;;;;;;;18.55;8.13;;;;;;;;;;4958347;28;20109;-84
2022/01/23 10:04:46;;;;;;;21.83;10.43;;;;;;;;;;4960710;28;20034;-87
2022/01/23 10:07:12;;;;;;;9.68;4.03;;;;;;;;;;4944525;28;20039;-85
2022/01/23 10:09:38;;;;;;;6.13;3.58;;;;;;;;;;4960036;28;20034;-85
2022/01/23 10:12:06;;;;;;;8.27;3.03;;;;;;;;;;4955516;28;20545;-86
2022/01/23 10:14:32;;;;;;;4.20;2.70;;;;;;;;;;4949499;28;20129;-84
2022/01/23 10:16:58;;;;;;;8.23;3.40;;;;;;;;;;4950227;28;20496;-85
2022/01/23 10:19:24;;;;;;;7.57;3.35;;;;;;;;;;4949052;28;20039;-84
2022/01/23 10:21:50;;;;;;;5.45;3.20;;;;;;;;;;4959352;28;20030;-84
2022/01/23 10:24:16;;;;;;;5.82;4.00;;;;;;;;;;4949590;28;20038;-84
2022/01/23 10:26:49;;;;;;;6.72;2.80;;;;;;;;;;4938274;28;20130;-85
2022/01/23 10:29:24;;;;;;;8.02;2.95;;;;;;;;;;4964471;28;20182;-85
2022/01/23 10:32:21;;;;;;;4.22;2.38;;;;;;;;;;4946220;28;20035;-85
2022/01/23 10:34:57;;;;;;;4.35;2.38;;;;;;;;;;4936976;28;20090;-84
2022/01/23 10:37:41;;;;;;;3.25;1.80;;;;;;;;;;4955298;28;20085;-83
2022/01/23 10:40:11;;;;;;;3.28;1.77;;;;;;;;;;4941778;28;20077;-84
2022/01/23 10:48:01;;;;;;;2.72;1.80;;;;;;;;;;4959022;28;21289;-84
2022/01/23 10:50:27;;;;;;;2.88;1.55;;;;;;;;;;4969362;28;20038;-85
2022/01/23 10:52:53;;;;;;;3.42;2.20;;;;;;;;;;4964991;28;20034;-84
2022/01/23 10:55:25;;;;;;;3.92;1.27;;;;;;;;;;4969240;28;20225;-84
2022/01/23 10:57:54;;;;;;;4.00;1.00;;;;;;;;;;4973937;28;20027;-84
2022/01/23 11:00:27;;;;;;;2.28;1.60;;;;;;;;;;4966139;28;20049;-84
2022/01/23 11:02:54;;;;;;;2.10;1.38;;;;;;;;;;4961834;28;20061;-84
2022/01/23 11:05:22;;;;;;;3.42;1.67;;;;;;;;;;4966713;28;20049;-84
2022/01/23 11:07:48;;;;;;;5.85;1.77;;;;;;;;;;4957641;28;20129;-84
2022/01/23 11:10:16;;;;;;;2.72;1.83;;;;;;;;;;4961696;28;20076;-86
2022/01/23 11:17:58;;;;;;;5.25;2.72;;;;;;;;;;4983148;28;20045;-85
2022/01/23 11:20:38;;;;;;;4.90;2.70;;;;;;;;;;4961695;28;20189;-88
2022/01/23 11:23:11;;;;;;;3.55;2.63;;;;;;;;;;4962655;28;20034;-89
2022/01/23 11:25:38;;;;;;;5.13;2.40;;;;;;;;;;4954763;28;20110;-89
2022/01/23 11:28:05;;;;;;;5.57;2.17;;;;;;;;;;4965749;28;20039;-89
2022/01/23 11:30:39;;;;;;;3.13;1.75;;;;;;;;;;4951585;28;20036;-86
2022/01/23 11:33:07;;;;;;;3.55;1.55;;;;;;;;;;4959020;28;20037;-89
2022/01/23 11:38:22;;;;;;;8.02;1.80;;;;;;;;;;4976651;28;20045;-84
2022/01/23 11:54:39;;;;;;;4.20;1.55;;;;;;;;;;4978137;28;20088;-85
2022/01/23 11:57:25;;;;;;;4.63;2.25;;;;;;;;;;4959934;28;20046;-85
2022/01/23 11:59:51;;;;;;;3.85;2.22;;;;;;;;;;4980447;28;20027;-86
2022/01/23 12:02:33;;;;;;;4.00;1.60;;;;;;;;;;4959164;28;20040;-86
2022/01/23 12:05:12;;;;;;;2.92;2.00;;;;;;;;;;4960657;28;20427;-86
2022/01/23 12:07:47;;;;;;;3.72;2.38;;;;;;;;;;4972847;28;20142;-87
2022/01/23 12:10:26;;;;;;;1.85;1.50;;;;;;;;;;4976010;28;20027;-86
2022/01/23 12:13:21;;;;;;;2.40;1.80;;;;;;;;;;4978316;28;20035;-87
2022/01/23 12:18:38;;;;;;;3.80;1.70;;;;;;;;;;4979851;28;20126;-86
2022/01/23 12:21:04;;;;;;;5.75;1.42;;;;;;;;;;4975870;28;20467;-86
2022/01/23 12:23:50;;;;;;;5.55;1.65;;;;;;;;;;4956391;28;20034;-87
2022/01/23 12:26:19;;;;;;;1.92;1.30;;;;;;;;;;4962694;28;20079;-87
2022/01/23 12:28:46;;;;;;;2.90;1.63;;;;;;;;;;4953109;28;20415;-86
2022/01/23 12:31:15;;;;;;;4.10;1.52;;;;;;;;;;4964361;28;20035;-85
2022/01/23 12:33:41;;;;;;;4.43;1.75;;;;;;;;;;4950390;28;20054;-86
2022/01/23 12:36:07;;;;;;;2.70;1.83;;;;;;;;;;4971501;28;20039;-89
2022/01/23 12:38:39;;;;;;;6.55;1.92;;;;;;;;;;4965980;28;20257;-86
2022/01/23 12:41:25;;;;;;;6.63;1.63;;;;;;;;;;4951925;28;20038;-88
2022/01/23 12:43:51;;;;;;;;;;;;;;;;;;4947260;28;20491;-87
2022/01/23 12:46:27;;;;;;;6.13;1.90;;;;;;;;;;4970107;28;19925;-86
2022/01/23 12:48:54;;;;;;;3.05;1.73;;;;;;;;;;4959007;28;20474;-86
2022/01/23 12:51:20;;;;;;;5.72;1.88;;;;;;;;;;4954127;28;20037;-86
2022/01/23 12:53:46;;;;;;;3.38;1.90;;;;;;;;;;4960559;28;20047;-86
2022/01/23 12:56:14;;;;;;;3.42;1.65;;;;;;;;;;4960966;28;20046;-86
2022/01/23 12:58:40;;;;;;;2.78;1.98;;;;;;;;;;4973596;28;20030;-85
2022/01/23 13:01:08;;;;;;;4.63;1.88;;;;;;;;;;4977051;28;20770;-86
2022/01/23 13:03:37;;;;;;;3.88;1.88;;;;;;;;;;4959122;28;20142;-86
2022/01/23 13:06:07;;;;;;;8.95;2.90;;;;;;;;;;4960245;28;20472;-86
2022/01/23 13:08:37;;;;;;;3.15;1.88;;;;;;;;;;4975953;28;20483;-85
2022/01/23 13:13:47;;;;;;;2.53;1.73;;;;;;;;;;4975920;28;20034;-86
2022/01/23 13:18:51;;;;;;;9.30;1.80;;;;;;;;;;4978564;28;20046;-86
2022/01/23 13:29:58;;;;;;;4.80;2.30;;;;;;;;;;4977344;28;20720;-86
2022/01/23 13:35:07;;;;;;;3.45;1.95;;;;;;;;;;4976913;28;20579;-90
2022/01/23 13:37:36;;;;;;;5.65;1.70;;;;;;;;;;4980090;28;20030;-87
2022/01/23 13:40:07;;;;;;;2.72;1.65;;;;;;;;;;4958889;28;20077;-86
2022/01/23 13:48:24;;;;;;;4.38;2.30;;;;;;;;;;4974595;28;20430;-84
2022/01/23 13:59:16;;;;;;;6.53;2.63;;;;;;;;;;4975726;28;20049;-86
2022/01/23 14:02:25;;;;;;;3.53;2.47;;;;;;;;;;4971842;28;20046;-84
2022/01/23 14:04:35;;;;;;;3.90;2.28;;;;;;;;;;4969413;28;20478;-84
2022/01/23 14:07:01;;;;;;;5.13;2.80;;;;;;;;;;4983477;28;20031;-84
2022/01/23 14:09:27;;;;;;;5.35;2.53;;;;;;;;;;4954964;28;20055;-84
2022/01/23 14:11:54;;;;;;;4.82;3.08;;;;;;;;;;4960431;28;20036;-85
2022/01/23 14:14:24;;;;;;;6.55;2.90;;;;;;;;;;4962256;28;20126;-85
2022/01/23 14:16:52;;;;;;;6.43;3.05;;;;;;;;;;4966046;28;20046;-84
2022/01/23 14:19:26;;;;;;;5.95;2.90;;;;;;;;;;4952711;28;20026;-84
2022/01/23 14:21:57;;;;;;;7.63;3.20;;;;;;;;;;4977870;28;21615;-84
2022/01/23 14:24:28;;;;;;;6.55;2.92;;;;;;;;;;4965507;28;20062;-89
2022/01/23 14:26:59;;;;;;;7.05;3.25;;;;;;;;;;4962012;28;20034;-84
2022/01/23 14:29:32;;;;;;;6.25;3.35;;;;;;;;;;4979780;28;20476;-84
2022/01/23 14:32:06;;;;;;;10.13;3.30;;;;;;;;;;4980443;28;20105;-85
2022/01/23 14:34:32;;;;;;;10.35;3.50;;;;;;;;;;4982480;28;20114;-85
2022/01/23 14:37:03;;;;;;;5.68;3.10;;;;;;;;;;4962649;28;20042;-84
2022/01/23 14:39:30;;;;;;;7.55;3.35;;;;;;;;;;4967003;28;20110;-84
2022/01/23 14:41:56;;;;;;;6.82;3.53;;;;;;;;;;4962824;28;20034;-84
2022/01/23 14:44:23;;;;;;;11.05;4.07;;;;;;;;;;4973736;28;20090;-85
2022/01/23 14:46:50;;;;;;;7.68;3.58;;;;;;;;;;4977169;28;20025;-86
2022/01/23 14:49:23;;;;;;;7.88;3.65;;;;;;;;;;4963440;28;20038;-85
2022/01/23 14:51:49;;;;;;;10.55;3.17;;;;;;;;;;4960199;28;20034;-85
2022/01/23 14:54:16;;;;;;;8.75;3.33;;;;;;;;;;4961744;28;20034;-84
2022/01/23 14:56:43;;;;;;;8.45;3.92;;;;;;;;;;4966665;28;20500;-85
2022/01/23 14:59:13;;;;;;;6.50;3.17;;;;;;;;;;4954840;28;20146;-84
2022/01/23 15:01:39;;;;;;;7.53;3.65;;;;;;;;;;4956927;28;20037;-84
2022/01/23 15:04:08;;;;;;;8.52;3.33;;;;;;;;;;4974231;28;20038;-84
2022/01/23 15:06:34;;;;;;;10.75;3.67;;;;;;;;;;4969874;28;20044;-84
2022/01/23 15:09:07;;;;;;;13.27;3.55;;;;;;;;;;4963521;28;20464;-85
2022/01/23 15:11:34;;;;;;;10.05;3.20;;;;;;;;;;4977465;28;20022;-84
2022/01/23 15:14:00;;;;;;;13.38;3.70;;;;;;;;;;4977925;28;20116;-84
2022/01/23 15:16:26;;;;;;;6.15;3.35;;;;;;;;;;4975545;28;20081;-84
2022/01/23 15:18:52;;;;;;;6.38;3.15;;;;;;;;;;4959952;28;20042;-84
2022/01/23 15:21:18;;;;;;;7.93;2.90;;;;;;;;;;4959761;28;20600;-84
2022/01/23 15:23:44;;;;;;;9.77;3.35;;;;;;;;;;4964575;28;20031;-83
2022/01/23 15:26:10;;;;;;;8.90;3.55;;;;;;;;;;4960660;28;20033;-84
2022/01/23 15:28:37;;;;;;;11.43;3.33;;;;;;;;;;4962187;28;20046;-85
2022/01/23 15:31:03;;;;;;;6.78;3.20;;;;;;;;;;4970872;28;20483;-85
2022/01/23 15:33:36;;;;;;;7.50;3.28;;;;;;;;;;4971791;28;20054;-85
2022/01/23 15:36:02;;;;;;;7.53;3.33;;;;;;;;;;4953701;28;20030;-85
2022/01/23 15:38:30;;;;;;;6.32;3.15;;;;;;;;;;4950585;28;20389;-84
2022/01/23 15:40:56;;;;;;;9.30;3.20;;;;;;;;;;4959223;28;20038;-84
2022/01/23 15:43:23;;;;;;;7.40;3.58;;;;;;;;;;4957562;28;20422;-84
2022/01/23 15:45:52;;;;;;;9.52;2.95;;;;;;;;;;4969248;28;20789;-85
2022/01/23 15:48:30;;;;;;;35.28;14.48;;;;;;;;;;4953176;28;20170;-84
2022/01/23 15:51:00;;;;;;;13.40;5.55;;;;;;;;;;4937480;28;20027;-85
2022/01/23 15:53:26;;;;;;;8.80;3.38;;;;;;;;;;4937128;28;20074;-85
2022/01/23 15:55:52;;;;;;;6.78;2.90;;;;;;;;;;4935999;28;20051;-84
2022/01/23 15:58:19;;;;;;;7.50;3.28;;;;;;;;;;4956055;28;20233;-84
2022/01/23 16:00:45;;;;;;;7.95;3.50;;;;;;;;;;4954521;28;20030;-84
2022/01/23 16:03:11;;;;;;;7.68;3.33;;;;;;;;;;4933416;28;20038;-84
2022/01/23 16:05:37;;;;;;;6.03;3.35;;;;;;;;;;4934620;28;20042;-84
2022/01/23 16:08:03;;;;;;;9.13;3.45;;;;;;;;;;4953164;28;20030;-84
2022/01/23 16:10:29;;;;;;;8.80;3.58;;;;;;;;;;4950824;28;20043;-84
2022/01/23 16:12:55;;;;;;;10.50;3.15;;;;;;;;;;4954167;28;20051;-84
2022/01/23 16:15:21;;;;;;;5.75;2.75;;;;;;;;;;4940839;28;20417;-83
2022/01/23 16:17:48;;;;;;;7.55;2.75;;;;;;;;;;4939295;28;20034;-83
2022/01/23 16:20:18;;;;;;;5.55;2.95;;;;;;;;;;4951880;28;20046;-84
2022/01/23 16:22:45;;;;;;;6.15;2.92;;;;;;;;;;4947652;28;20121;-84
2022/01/23 16:25:11;;;;;;;6.18;2.72;;;;;;;;;;4951984;28;20337;-88
2022/01/23 16:27:38;;;;;;;7.85;3.17;;;;;;;;;;4950734;28;20535;-83
2022/01/23 16:30:05;;;;;;;5.65;3.13;;;;;;;;;;4940947;28;20468;-87
2022/01/23 16:32:31;;;;;;;7.38;3.15;;;;;;;;;;4941036;28;20506;-83
2022/01/23 16:34:57;;;;;;;10.30;3.13;;;;;;;;;;4948078;28;20039;-84
2022/01/23 16:37:23;;;;;;;5.57;3.00;;;;;;;;;;4941262;28;20047;-84
2022/01/23 16:39:49;;;;;;;7.28;3.10;;;;;;;;;;4945511;28;20398;-83
2022/01/23 16:42:15;;;;;;;5.78;2.78;;;;;;;;;;4946542;28;20035;-84
2022/01/23 16:44:41;;;;;;;7.00;3.22;;;;;;;;;;4945484;28;20432;-84
2022/01/23 16:47:09;;;;;;;6.20;2.97;;;;;;;;;;4942527;28;20046;-84
2022/01/23 16:49:35;;;;;;;4.50;2.97;;;;;;;;;;4951657;28;20047;-88
2022/01/23 16:52:01;;;;;;;9.02;3.53;;;;;;;;;;4976352;28;20520;-84
2022/01/23 16:54:27;;;;;;;6.70;3.22;;;;;;;;;;4962678;28;20074;-84
2022/01/23 16:56:53;;;;;;;11.50;3.53;;;;;;;;;;4982273;28;20031;-87
2022/01/23 16:59:19;;;;;;;8.45;3.30;;;;;;;;;;4966409;28;20402;-85
2022/01/23 17:01:46;;;;;;;8.73;3.80;;;;;;;;;;4959992;28;20414;-91
2022/01/23 17:04:13;;;;;;;9.70;3.47;;;;;;;;;;4963940;28;20040;-85
2022/01/23 17:06:39;;;;;;;6.13;3.38;;;;;;;;;;4969608;28;20034;-84
2022/01/23 17:09:06;;;;;;;5.47;3.65;;;;;;;;;;4985139;28;20036;-85
2022/01/23 17:11:32;;;;;;;13.52;4.03;;;;;;;;;;4977624;28;20033;-84
2022/01/23 17:13:59;;;;;;;10.45;3.83;;;;;;;;;;4971090;28;20085;-84
2022/01/23 17:16:25;;;;;;;8.68;4.07;;;;;;;;;;4976356;28;20889;-85
2022/01/23 17:18:52;;;;;;;11.93;4.18;;;;;;;;;;4984844;28;20423;-87
2022/01/23 17:21:18;;;;;;;8.27;3.85;;;;;;;;;;4979444;28;20482;-84
2022/01/23 17:23:44;;;;;;;8.75;3.83;;;;;;;;;;4983068;28;20582;-85
2022/01/23 17:26:10;;;;;;;5.57;3.38;;;;;;;;;;4963526;28;20120;-84
2022/01/23 17:28:36;;;;;;;7.50;4.07;;;;;;;;;;4980503;28;20035;-84
2022/01/23 17:31:02;;;;;;;7.07;3.60;;;;;;;;;;4965352;28;20027;-85
2022/01/23 17:33:28;;;;;;;8.75;3.60;;;;;;;;;;4965038;28;20114;-85
2022/01/23 17:35:54;;;;;;;8.25;3.40;;;;;;;;;;4983308;28;20065;-84
2022/01/23 17:38:20;;;;;;;7.10;4.05;;;;;;;;;;4966061;28;20057;-84
2022/01/23 17:40:47;;;;;;;11.90;4.47;;;;;;;;;;4968218;28;20599;-84
2022/01/23 17:43:14;;;;;;;9.52;3.92;;;;;;;;;;4965981;28;20029;-85
2022/01/23 17:46:05;;;;;;;8.63;4.65;;;;;;;;;;4968716;28;20518;-90
2022/01/23 17:51:08;;;;;;;8.85;4.03;;;;;;;;;;4977290;28;19932;-88
2022/01/23 17:53:35;;;;;;;7.90;4.65;;;;;;;;;;4953317;28;20038;-86
2022/01/23 17:56:01;;;;;;;10.38;4.05;;;;;;;;;;4970415;28;20068;-86
2022/01/23 17:58:28;;;;;;;8.85;4.50;;;;;;;;;;4963712;28;20494;-85
2022/01/23 18:00:55;;;;;;;10.63;4.43;;;;;;;;;;4972341;28;20550;-85
2022/01/23 18:03:21;;;;;;;11.90;3.72;;;;;;;;;;4974611;28;20023;-84
2022/01/23 18:05:48;;;;;;;6.53;4.15;;;;;;;;;;4977804;28;20099;-85
2022/01/23 18:08:15;;;;;;;10.40;3.85;;;;;;;;;;4957935;28;20126;-85
2022/01/23 18:10:41;;;;;;;7.95;3.65;;;;;;;;;;4962333;28;20065;-85
2022/01/23 18:13:11;;;;;;;7.30;3.42;;;;;;;;;;4959606;28;20041;-85
2022/01/23 18:15:39;;;;;;;7.38;3.20;;;;;;;;;;4961603;28;20022;-85
2022/01/23 18:18:06;;;;;;;8.27;3.88;;;;;;;;;;4974903;28;20483;-84
2022/01/23 18:20:32;;;;;;;9.30;3.92;;;;;;;;;;4976265;28;20109;-85